Skip to Main Content

Live Traffic Cameras in Montgomery county may be offline at times this weekend due to network maintenance by the county.

 

SEARCH:
Location Air RH Dwp Precip Type Wind Speed Wind Gust Direction Pavement Temperature Date/Time
Hatem Bridge US 40 E/B 62 90 60 None - - No Data Available 59 - 59 10/22/2017 10:10:00 PM
I-270 at I-370 63 61 50 None Calm Calm SE 65 - 67 10/22/2017 10:10:00 PM
I-270 at MD-109 55 89 52 None Calm Calm E 61 - 61 10/22/2017 10:10:00 PM
I-495 at American Legion Bridge 57 85 53 None Calm 5 mph NE 63 - 65 10/22/2017 10:10:00 PM
I-68 at MD-219 58 79 52 None 8 mph 17 mph SE 60 - 62 10/22/2017 10:10:00 PM
I-68 at Savage Mt 57 84 52 None 4 mph 8 mph E 60 - 60 10/22/2017 10:10:00 PM
I-68 at Sideling Hill 62 84 57 None Calm 9 mph SW 65 - 65 10/22/2017 10:10:00 PM
I-68 at WV Line 63 59 49 None Calm 8 mph SE 64 - 65 10/22/2017 10:10:00 PM
I-695 at I-83 56 83 51 None Calm Calm N 62 - 62 10/22/2017 10:10:00 PM
I-70 at Fred-Wash Co. - - - No Data Available - - No Data Available -
I-70 at I-695 58 81 52 None Calm 8 mph SW 63 - 67 10/22/2017 10:10:00 PM
I-70 at I-81 63 70 53 None 6 mph 10 mph S - 10/22/2017 10:10:00 PM
I-70 at MD-27 59 67 48 None Calm Calm SE 63 - 63 10/22/2017 10:10:00 PM
I-70 at MD-32 53 87 50 None Calm Calm NE 61 - 62 10/22/2017 10:10:00 PM
I-83 at MD-137 54 92 52 None Calm Calm NW 62 - 62 10/22/2017 10:10:00 PM
I-95 at I-695 NE 59 83 54 None Calm Calm N 63 - 64 10/22/2017 10:10:00 PM
I-95 at Patuxent River 58 85 54 None Calm 5 mph N 64 - 65 10/22/2017 10:10:00 PM
I-95 at Tydings Bridge 61 82 56 None 6 mph 10 mph E - 10/22/2017 10:10:00 PM
I-95/495 at I-295 68 59 54 None Calm Calm SE 66 - 68 10/22/2017 10:10:00 PM
I-97 at MD-100 57 84 53 None Calm Calm N 63 - 63 10/22/2017 10:10:00 PM
I-97 at MD-32 55 86 51 None 8 mph 9 mph N 63 - 63 10/22/2017 10:10:00 PM
MD 20 at MD 21 56 87 53 None Calm Calm N 63 - 63 10/22/2017 10:10:00 PM
MD 231 at Patuxent River 56 95 55 None Calm Calm SW 63 - 63 10/22/2017 10:10:00 PM
MD 260 at Cox Rd 61 89 58 None Calm Calm SW 65 - 65 10/22/2017 10:10:00 PM
MD-135 at Salt Dome 57 84 52 None 7 mph 17 mph SE 60 - 60 10/22/2017 10:10:00 PM
MD-140 at MD-97 57 80 51 None Calm Calm SE 63 - 63 10/22/2017 10:10:00 PM
MD-200 EB at Bonifant Rd 53 89 50 None Calm Calm NW 56 - 57 10/22/2017 10:10:00 PM
MD-200 WB at Muncaster Mill Rd 53 82 48 None Calm Calm E 59 - 60 10/22/2017 10:10:00 PM
MD-213 at Sassafras River 59 99 59 None Calm Calm N 63 - 63 10/22/2017 10:10:00 PM
MD-24 at Rock St Park 53 99 53 None Calm Calm N 54 - 54 10/22/2017 10:10:00 PM
MD-30 at PA Line 57 84 53 None Calm Calm SE 62 - 62 10/22/2017 10:10:00 PM
MD-301 at MD-305 57 83 52 None Calm 4 mph E 63 - 64 10/22/2017 10:10:00 PM
MD-33 at Knapps Narrows Drawbridge 64 88 60 None 5 mph 11 mph SE 68 - 68 10/22/2017 10:10:00 PM
MD-344 at MD-224 61 90 58 None Calm Calm N 62 - 62 10/22/2017 10:10:00 PM
MD-4 at Patuxent River 64 93 63 None - - No Data Available 66 - 67 10/22/2017 10:10:00 PM
MD-404 at Choptank River 58 89 55 None Calm Calm E 64 - 65 10/22/2017 10:10:00 PM
MD-43 at MD-150 - - - No Data Available - - No Data Available -
MD-51 at Oldtown Salt Dome 65 72 56 None Calm 5 mph E 69 - 69 10/22/2017 10:10:00 PM
MD-64 at MD-418 64 60 50 None Calm 13 mph S 65 - 66 10/22/2017 10:10:00 PM
US-1 at Baltimore / Harford Co. Line 53 94 51 None Calm Calm NW 57 - 59 10/22/2017 10:10:00 PM
US-1 at Conowingo Dam 58 84 53 None Calm Calm N 64 - 64 10/22/2017 10:10:00 PM
US-13 at US-113 62 97 61 None Calm Calm E 71 - 71 10/22/2017 10:10:00 PM
US-13 at US-50 - - - No Data Available - - No Data Available -
US-15 at MD-140 52 84 48 None Calm Calm N 61 - 63 10/22/2017 10:10:00 PM
US-301 at MD-5 59 87 55 None Calm Calm E 65 - 65 10/22/2017 10:10:00 PM
US-301 at Potomac 66 85 61 None Calm 9 mph SE 65 - 66 10/22/2017 10:10:00 PM
US-301 on HWN Bridge 65 83 60 None - - No Data Available 64 - 64 10/22/2017 10:10:00 PM
US-340 at MD-180 60 73 52 None Calm 6 mph SE 63 - 65 10/22/2017 10:10:00 PM
US-50 at Choptank 62 99 61 None 4 mph 7 mph E 65 - 65 10/22/2017 10:10:00 PM
US-50 at I-95 - - - No Data Available - - No Data Available -
US-50 at MD-2 62 92 60 None Calm Calm E 61 - 65 10/22/2017 10:10:00 PM
US-50 at MD-331 63 90 60 None Calm 6 mph SE 65 - 68 10/22/2017 10:10:00 PM
US-50 at OC Drawbridge 65 100 65 None Calm Calm W 68 - 68 10/22/2017 10:10:00 PM
US-50 at Table Rock Rd 58 76 50 None 9 mph 16 mph E 61 - 61 10/22/2017 10:10:00 PM
US-50 Kent Narrow Bridge 62 86 58 None 4 mph 6 mph E 65 - 65 10/22/2017 10:10:00 PM
WPL Pier 31 64 80 58 Rain 10 mph 12 mph SE 62 - 62 10/22/2017 10:10:00 PM
Location Air RH Dwp Precip Type Wind Speed Wind Gust Direction Pavement Temperature Date/Time